createdAt,value
2023-05-24T00:01:50.610Z,16.62
2023-05-24T00:04:19.394Z,16.61
2023-05-24T00:06:47.944Z,16.60
2023-05-24T00:09:16.397Z,16.61
2023-05-24T00:11:44.754Z,16.61
2023-05-24T00:14:13.253Z,16.61
2023-05-24T00:16:41.785Z,16.61
2023-05-24T00:19:10.756Z,16.61
2023-05-24T00:21:39.166Z,16.62
2023-05-24T00:24:07.671Z,16.62
2023-05-24T00:26:36.438Z,16.61
2023-05-24T00:29:05.020Z,16.62
2023-05-24T00:31:33.573Z,16.62
2023-05-24T00:34:01.922Z,16.63
2023-05-24T00:36:30.594Z,16.64
2023-05-24T00:38:59.121Z,16.65
2023-05-24T00:41:27.518Z,16.66
2023-05-24T00:43:56.045Z,16.67
2023-05-24T00:46:28.957Z,16.68
2023-05-24T00:48:57.657Z,16.69
2023-05-24T00:51:27.312Z,16.69
2023-05-24T00:53:56.402Z,16.69
2023-05-24T00:56:26.094Z,16.68
2023-05-24T00:58:55.376Z,16.67
2023-05-24T01:01:25.345Z,16.65
2023-05-24T01:03:54.857Z,16.63
2023-05-24T01:06:26.611Z,16.62
2023-05-24T01:09:09.460Z,16.61
2023-05-24T01:11:48.424Z,16.60
2023-05-24T01:14:23.228Z,16.59
2023-05-24T01:16:57.586Z,16.60
2023-05-24T01:19:42.711Z,16.59
2023-05-24T01:22:25.095Z,16.61
2023-05-24T01:25:02.940Z,16.61
2023-05-24T01:27:33.386Z,16.62
2023-05-24T01:30:03.600Z,16.62
2023-05-24T01:32:32.553Z,16.62
2023-05-24T01:35:01.052Z,16.62
2023-05-24T01:37:29.396Z,16.63
2023-05-24T01:39:57.809Z,16.63
2023-05-24T01:42:34.102Z,16.63
2023-05-24T01:45:08.902Z,16.64
2023-05-24T01:47:47.172Z,16.64
2023-05-24T01:50:20.391Z,16.64
2023-05-24T01:52:50.588Z,16.63
2023-05-24T01:55:19.294Z,16.61
2023-05-24T01:57:48.896Z,16.59
2023-05-24T02:00:19.424Z,16.58
2023-05-24T02:02:48.079Z,16.56
2023-05-24T02:05:19.404Z,16.53
2023-05-24T02:07:47.821Z,16.50
2023-05-24T02:10:16.181Z,16.47
2023-05-24T02:12:44.691Z,16.44
2023-05-24T02:15:14.218Z,16.41
2023-05-24T02:17:42.782Z,16.37
2023-05-24T02:20:13.153Z,16.33
2023-05-24T02:22:41.607Z,16.31
2023-05-24T02:25:10.419Z,16.27
2023-05-24T02:27:38.788Z,16.25
2023-05-24T02:30:10.088Z,16.21
2023-05-24T02:32:38.614Z,16.18
2023-05-24T02:35:07.757Z,16.14
2023-05-24T02:37:36.607Z,16.09
2023-05-24T02:40:07.351Z,16.05
2023-05-24T02:42:35.742Z,16.01
2023-05-24T02:45:05.178Z,15.98
2023-05-24T02:47:33.476Z,15.93
2023-05-24T02:50:01.926Z,15.91
2023-05-24T02:52:30.475Z,15.89
2023-05-24T02:54:59.185Z,15.86
2023-05-24T02:57:28.465Z,15.84
2023-05-24T02:59:57.328Z,15.83
2023-05-24T03:02:27.930Z,15.81
2023-05-24T03:04:56.517Z,15.79
2023-05-24T03:07:25.097Z,15.75
2023-05-24T03:09:53.699Z,15.77
2023-05-24T03:12:23.061Z,15.78
2023-05-24T03:14:52.500Z,15.79
2023-05-24T03:17:21.239Z,15.81
2023-05-24T03:19:51.899Z,15.83
2023-05-24T03:22:20.415Z,15.86
2023-05-24T03:24:49.685Z,15.91
2023-05-24T03:27:18.446Z,15.95
2023-05-24T03:29:46.951Z,15.99
2023-05-24T03:32:16.420Z,16.03
2023-05-24T03:34:45.345Z,16.09
2023-05-24T03:37:15.165Z,16.14
2023-05-24T03:39:44.808Z,16.19
2023-05-24T03:42:36.042Z,16.24
2023-05-24T03:45:06.925Z,16.28
2023-05-24T03:47:35.476Z,16.31
2023-05-24T03:50:05.743Z,16.35
2023-05-24T03:52:34.202Z,16.39
2023-05-24T03:55:02.759Z,16.43
2023-05-24T03:57:31.498Z,16.47
2023-05-24T04:00:00.356Z,16.52
2023-05-24T04:02:29.468Z,16.55
2023-05-24T04:04:58.108Z,16.59
2023-05-24T04:07:27.935Z,16.63
2023-05-24T04:09:56.556Z,16.67
2023-05-24T04:12:25.156Z,16.72
2023-05-24T04:14:53.761Z,16.76
2023-05-24T04:17:24.109Z,16.79
2023-05-24T04:19:52.928Z,16.82
2023-05-24T04:22:23.742Z,16.87
2023-05-24T04:24:54.189Z,16.92
2023-05-24T04:27:25.586Z,16.96
2023-05-24T04:29:54.458Z,17.00
2023-05-24T04:32:23.351Z,17.06
2023-05-24T04:34:52.484Z,17.13
2023-05-24T04:37:21.340Z,17.18
2023-05-24T04:39:51.006Z,17.23
2023-05-24T04:42:19.602Z,17.28
2023-05-24T04:44:48.119Z,17.36
2023-05-24T04:47:17.011Z,17.43
2023-05-24T04:49:45.617Z,17.50
2023-05-24T04:52:14.382Z,17.59
2023-05-24T04:54:43.038Z,17.68
2023-05-24T04:57:11.633Z,17.78
2023-05-24T04:59:40.085Z,17.87
2023-05-24T05:02:08.808Z,17.97
2023-05-24T05:04:37.467Z,18.07
2023-05-24T05:07:06.619Z,18.18
2023-05-24T05:09:35.297Z,18.26
2023-05-24T05:12:04.243Z,18.36
2023-05-24T05:14:32.969Z,18.44
2023-05-24T05:17:01.521Z,18.53
2023-05-24T05:19:34.096Z,18.67
2023-05-24T05:22:03.279Z,18.85
2023-05-24T05:24:31.846Z,19.00
2023-05-24T05:27:00.527Z,19.16
2023-05-24T05:29:29.251Z,19.34
2023-05-24T05:31:57.844Z,19.56
2023-05-24T05:34:26.346Z,19.74
2023-05-24T05:36:54.836Z,19.86
2023-05-24T05:39:23.352Z,19.99
2023-05-24T05:41:51.909Z,20.11
2023-05-24T05:44:20.590Z,20.21
2023-05-24T05:46:49.042Z,20.33
2023-05-24T05:49:17.954Z,20.43
2023-05-24T05:51:46.776Z,20.58
2023-05-24T05:54:17.697Z,20.76
2023-05-24T05:56:47.363Z,20.93
2023-05-24T05:59:16.299Z,21.06
2023-05-24T06:01:46.828Z,21.20
2023-05-24T06:04:15.769Z,21.31
2023-05-24T06:06:48.749Z,21.43
2023-05-24T06:09:17.255Z,21.57
2023-05-24T06:11:45.850Z,21.72
2023-05-24T06:14:17.587Z,21.86
2023-05-24T06:16:47.327Z,21.95
2023-05-24T06:19:16.297Z,22.00
2023-05-24T06:21:47.274Z,22.07
2023-05-24T06:24:19.667Z,22.10
2023-05-24T06:26:48.414Z,22.22
2023-05-24T06:29:19.071Z,22.79
2023-05-24T06:31:47.947Z,23.75
2023-05-24T06:34:18.236Z,24.34
2023-05-24T06:36:47.878Z,24.49
2023-05-24T06:39:17.159Z,24.42
2023-05-24T06:41:46.477Z,24.35
2023-05-24T06:44:15.764Z,24.42
2023-05-24T06:46:44.521Z,24.53
2023-05-24T06:49:13.377Z,24.93
2023-05-24T06:51:41.972Z,25.48
2023-05-24T06:54:10.497Z,26.21
2023-05-24T06:56:39.299Z,27.07
2023-05-24T06:59:08.177Z,27.85
2023-05-24T07:01:39.140Z,28.53
2023-05-24T07:04:07.892Z,29.14
2023-05-24T07:06:37.287Z,29.68
2023-05-24T07:09:06.042Z,30.06
2023-05-24T07:11:35.025Z,30.47
2023-05-24T07:14:03.639Z,30.84
2023-05-24T07:16:32.125Z,31.16
2023-05-24T07:19:03.180Z,31.44
2023-05-24T07:21:33.173Z,31.63
2023-05-24T07:24:03.305Z,31.84
2023-05-24T07:26:31.884Z,32.06
2023-05-24T07:29:00.498Z,32.23
2023-05-24T07:31:30.779Z,32.37
2023-05-24T07:33:59.608Z,32.40
2023-05-24T07:39:03.215Z,32.41
2023-05-24T07:41:32.685Z,32.43
2023-05-24T07:44:01.100Z,32.48
2023-05-24T07:46:29.514Z,32.51
2023-05-24T07:48:58.025Z,32.58
2023-05-24T07:51:26.369Z,32.41
2023-05-24T07:53:55.319Z,32.19
2023-05-24T07:56:24.153Z,31.93
2023-05-24T07:58:56.214Z,31.41
2023-05-24T08:01:24.793Z,30.86
2023-05-24T08:03:53.304Z,30.47
2023-05-24T08:06:23.435Z,30.11
2023-05-24T08:08:51.946Z,29.93
2023-05-24T08:11:20.434Z,29.73
2023-05-24T08:13:48.877Z,29.44
2023-05-24T08:16:18.007Z,29.18
2023-05-24T08:18:46.449Z,29.08
2023-05-24T08:21:15.001Z,28.87
2023-05-24T08:23:44.513Z,28.68
2023-05-24T08:26:13.292Z,28.50
2023-05-24T08:28:42.397Z,28.45
2023-05-24T08:31:10.855Z,28.52
2023-05-24T08:33:39.715Z,28.62
2023-05-24T08:36:08.663Z,28.70
2023-05-24T08:38:37.060Z,28.83
2023-05-24T08:41:07.127Z,28.88
2023-05-24T08:43:35.712Z,28.92
2023-05-24T08:46:05.453Z,28.83
2023-05-24T08:48:35.415Z,28.69
2023-05-24T08:51:04.253Z,28.58
2023-05-24T08:53:33.192Z,28.54
2023-05-24T08:56:01.533Z,28.55
2023-05-24T08:58:31.358Z,28.54
2023-05-24T09:01:01.493Z,28.64
2023-05-24T09:03:35.383Z,28.70
2023-05-24T09:06:04.766Z,28.65
2023-05-24T09:08:34.539Z,28.55
2023-05-24T09:11:03.667Z,28.57
2023-05-24T09:13:32.095Z,28.64
2023-05-24T09:16:00.719Z,28.66
2023-05-24T09:18:29.435Z,28.73
2023-05-24T09:20:57.998Z,28.72
2023-05-24T09:23:26.711Z,28.75
2023-05-24T09:25:55.440Z,28.79
2023-05-24T09:28:24.412Z,28.85
2023-05-24T09:31:00.974Z,28.84
2023-05-24T09:33:32.870Z,28.80
2023-05-24T09:36:02.733Z,28.75
2023-05-24T09:38:31.332Z,28.69
2023-05-24T09:41:01.698Z,28.64
2023-05-24T09:43:31.104Z,28.64
2023-05-24T09:45:59.965Z,28.65
2023-05-24T09:48:29.176Z,28.61
2023-05-24T09:51:09.069Z,28.57
2023-05-24T09:53:38.035Z,28.59
2023-05-24T09:56:07.918Z,28.65
2023-05-24T09:58:36.502Z,28.65
2023-05-24T10:01:07.148Z,28.74
2023-05-24T10:03:36.886Z,28.85
2023-05-24T10:06:06.938Z,28.93
2023-05-24T10:08:35.951Z,28.99
2023-05-24T10:11:04.638Z,29.06
2023-05-24T10:13:35.147Z,29.11
2023-05-24T10:16:04.450Z,29.22
2023-05-24T10:18:32.947Z,29.23
2023-05-24T10:21:02.187Z,29.29
2023-05-24T10:23:31.911Z,29.26
2023-05-24T10:26:06.164Z,29.11
2023-05-24T10:28:36.270Z,29.09
2023-05-24T10:31:10.487Z,29.14
2023-05-24T10:33:39.798Z,29.21
2023-05-24T10:36:10.491Z,29.25
2023-05-24T10:38:40.123Z,29.26
2023-05-24T10:41:08.940Z,29.27
2023-05-24T10:43:37.722Z,29.25
2023-05-24T10:46:09.434Z,29.19
2023-05-24T10:48:40.055Z,29.09
2023-05-24T10:51:39.055Z,28.91
2023-05-24T10:54:17.655Z,28.66
2023-05-24T10:56:47.503Z,28.52
2023-05-24T10:59:30.950Z,28.44
2023-05-24T11:02:00.288Z,28.39
2023-05-24T11:04:31.679Z,28.34
2023-05-24T11:07:03.914Z,28.34
2023-05-24T11:09:33.147Z,28.31
2023-05-24T11:12:03.723Z,28.13
2023-05-24T11:14:32.255Z,27.93
2023-05-24T11:17:01.454Z,27.75
2023-05-24T11:19:34.567Z,27.58
2023-05-24T11:22:04.537Z,27.50
2023-05-24T11:24:33.502Z,27.48
2023-05-24T11:27:03.874Z,27.52
2023-05-24T11:29:33.572Z,27.66
2023-05-24T11:32:04.181Z,27.70
2023-05-24T11:34:33.203Z,27.78
2023-05-24T11:37:02.643Z,27.86
2023-05-24T11:39:31.850Z,27.78
2023-05-24T11:42:00.764Z,27.61
2023-05-24T11:44:31.348Z,27.44
2023-05-24T11:47:00.357Z,27.25
2023-05-24T11:49:29.346Z,27.07
2023-05-24T11:51:58.764Z,26.90
2023-05-24T11:54:28.141Z,26.77
2023-05-24T11:56:56.827Z,26.67
2023-05-24T11:59:25.919Z,26.57
2023-05-24T12:02:05.026Z,26.45
2023-05-24T12:04:34.587Z,26.39
2023-05-24T12:07:03.507Z,26.27
2023-05-24T12:09:32.193Z,26.06
2023-05-24T12:12:01.340Z,25.83
2023-05-24T12:14:31.452Z,25.58
2023-05-24T12:17:00.628Z,25.22
2023-05-24T12:19:34.173Z,24.77
2023-05-24T12:22:06.818Z,24.29
2023-05-24T12:24:36.956Z,23.89
2023-05-24T12:27:06.797Z,23.52
2023-05-24T12:29:37.118Z,23.21
2023-05-24T12:32:11.206Z,22.92
2023-05-24T12:34:42.197Z,22.64
2023-05-24T12:37:14.785Z,22.42
2023-05-24T12:39:46.496Z,22.27
2023-05-24T12:42:14.844Z,22.11
2023-05-24T12:44:44.517Z,21.88
2023-05-24T12:47:12.921Z,21.68
2023-05-24T12:49:42.871Z,21.50
2023-05-24T12:52:12.420Z,21.31
2023-05-24T12:54:41.162Z,21.09
2023-05-24T12:57:09.925Z,20.87
2023-05-24T12:59:38.230Z,20.75
2023-05-24T13:02:07.258Z,20.53
2023-05-24T13:04:35.812Z,20.21
2023-05-24T13:07:04.614Z,19.86
2023-05-24T13:09:33.617Z,19.39
2023-05-24T13:12:02.383Z,18.98
2023-05-24T13:14:31.038Z,18.72
2023-05-24T13:16:59.672Z,18.59
2023-05-24T13:19:28.184Z,18.36
2023-05-24T13:21:56.590Z,18.21
2023-05-24T13:24:24.993Z,18.11
2023-05-24T13:26:54.824Z,18.05
2023-05-24T13:31:55.617Z,18.17
2023-05-24T13:34:25.120Z,18.32
2023-05-24T13:36:54.176Z,18.44
2023-05-24T13:39:23.140Z,18.51
2023-05-24T13:41:51.582Z,18.61
2023-05-24T13:44:20.000Z,18.66
2023-05-24T13:46:48.656Z,18.75
2023-05-24T13:49:17.047Z,18.83
2023-05-24T13:51:46.367Z,18.92
2023-05-24T13:54:14.791Z,19.00
2023-05-24T13:56:44.152Z,19.04
2023-05-24T13:59:12.902Z,19.09
2023-05-24T14:01:41.844Z,19.13
2023-05-24T14:04:10.227Z,19.12
2023-05-24T14:06:38.608Z,19.13
2023-05-24T14:09:07.900Z,19.18
2023-05-24T14:11:36.760Z,19.23
2023-05-24T14:16:37.021Z,19.27
2023-05-24T14:19:05.779Z,19.33
2023-05-24T14:21:37.459Z,19.40
2023-05-24T14:24:05.816Z,19.48
2023-05-24T14:26:34.322Z,19.56
2023-05-24T14:29:02.637Z,19.62
2023-05-24T14:31:31.018Z,19.68
2023-05-24T14:33:59.806Z,19.72
2023-05-24T14:36:28.215Z,19.78
2023-05-24T14:38:56.522Z,19.84
2023-05-24T14:41:25.658Z,19.92
2023-05-24T14:43:53.933Z,19.96
2023-05-24T14:46:22.369Z,20.01
2023-05-24T14:48:51.306Z,20.04
2023-05-24T14:51:19.888Z,19.99
2023-05-24T14:53:48.450Z,19.95
2023-05-24T14:56:17.008Z,19.94
2023-05-24T14:58:45.530Z,19.93
2023-05-24T15:01:14.104Z,19.94
2023-05-24T15:03:42.622Z,19.92
2023-05-24T15:06:11.061Z,19.88
2023-05-24T15:08:39.829Z,19.89
2023-05-24T15:11:08.235Z,19.93
2023-05-24T15:13:37.697Z,19.98
2023-05-24T15:16:06.575Z,20.08
2023-05-24T15:18:34.989Z,20.18
2023-05-24T15:21:03.492Z,20.29
2023-05-24T15:23:32.018Z,20.35
2023-05-24T15:26:01.501Z,20.40
2023-05-24T15:28:30.062Z,20.45
2023-05-24T15:30:59.148Z,20.51
2023-05-24T15:33:28.851Z,20.58
2023-05-24T15:35:57.862Z,20.61
2023-05-24T15:38:26.216Z,20.66
2023-05-24T15:40:54.927Z,20.68
2023-05-24T15:43:23.286Z,20.72
2023-05-24T15:45:51.630Z,20.73
2023-05-24T15:48:20.037Z,20.69
2023-05-24T15:51:25.671Z,20.65
2023-05-24T15:53:37.359Z,20.62
2023-05-24T15:56:06.936Z,20.60
2023-05-24T15:58:35.449Z,20.57
2023-05-24T16:01:03.911Z,20.55
2023-05-24T16:03:32.503Z,20.53
2023-05-24T16:06:01.013Z,20.52
2023-05-24T16:08:29.580Z,20.52
2023-05-24T16:10:58.523Z,20.52
2023-05-24T16:13:26.955Z,20.50
2023-05-24T16:15:55.383Z,20.53
2023-05-24T16:18:25.052Z,20.57
2023-05-24T16:20:53.466Z,20.65
2023-05-24T16:23:22.468Z,20.74
2023-05-24T16:25:51.053Z,20.83
2023-05-24T16:28:23.119Z,20.90
2023-05-24T16:30:54.824Z,20.97
2023-05-24T16:33:23.307Z,21.01
2023-05-24T16:35:55.133Z,21.03
2023-05-24T16:38:23.964Z,21.01
2023-05-24T16:40:53.435Z,20.99
2023-05-24T16:43:22.024Z,20.95
2023-05-24T16:45:50.884Z,20.88
2023-05-24T16:48:20.742Z,20.80
2023-05-24T16:50:50.959Z,20.70
2023-05-24T16:53:22.217Z,20.64
2023-05-24T16:55:53.230Z,20.56
2023-05-24T16:58:22.563Z,20.47
2023-05-24T17:00:53.474Z,20.39
2023-05-24T17:03:26.958Z,20.26
2023-05-24T17:05:56.896Z,20.23
2023-05-24T17:08:26.820Z,20.20
2023-05-24T17:10:56.376Z,20.19
2023-05-24T17:13:26.710Z,20.20
2023-05-24T17:15:55.409Z,20.20
2023-05-24T17:18:27.550Z,20.19
2023-05-24T17:20:58.049Z,20.14
2023-05-24T17:23:27.570Z,20.10
2023-05-24T17:25:56.320Z,20.07
2023-05-24T17:28:26.849Z,20.06
2023-05-24T17:30:55.608Z,20.02
2023-05-24T17:33:24.895Z,19.95
2023-05-24T17:35:55.710Z,19.89
2023-05-24T17:38:24.308Z,19.82
2023-05-24T17:40:56.217Z,19.78
2023-05-24T17:43:28.181Z,19.76
2023-05-24T17:46:02.387Z,19.72
2023-05-24T17:48:31.347Z,19.68
2023-05-24T17:51:00.824Z,19.64
2023-05-24T17:53:31.934Z,19.60
2023-05-24T17:56:00.937Z,19.57
2023-05-24T17:58:32.166Z,19.50
2023-05-24T18:01:00.686Z,19.44
2023-05-24T18:03:29.244Z,19.40
2023-05-24T18:05:57.561Z,19.35
2023-05-24T18:08:26.076Z,19.27
2023-05-24T18:10:54.751Z,19.20
2023-05-24T18:13:23.188Z,19.13
2023-05-24T18:15:52.295Z,19.05
2023-05-24T18:18:21.020Z,18.99
2023-05-24T18:20:51.323Z,18.94
2023-05-24T18:23:21.295Z,18.88
2023-05-24T18:25:51.865Z,18.84
2023-05-24T18:28:30.127Z,18.80
2023-05-24T18:30:58.484Z,18.76
2023-05-24T18:33:26.901Z,18.68
2023-05-24T18:35:55.519Z,18.59
2023-05-24T18:38:23.990Z,18.49
2023-05-24T18:40:52.587Z,18.40
2023-05-24T18:43:21.196Z,18.32
2023-05-24T18:45:52.067Z,18.24
2023-05-24T18:48:21.021Z,18.18
2023-05-24T18:50:53.159Z,18.12
2023-05-24T18:53:21.782Z,18.05
2023-05-24T18:55:53.932Z,18.00
2023-05-24T18:58:22.624Z,17.94
2023-05-24T19:00:51.489Z,17.90
2023-05-24T19:03:21.470Z,17.86
2023-05-24T19:05:52.010Z,17.85
2023-05-24T19:08:22.056Z,17.85
2023-05-24T19:10:51.125Z,17.82
2023-05-24T19:13:19.863Z,17.77
2023-05-24T19:15:48.398Z,17.71
2023-05-24T19:18:19.172Z,17.65
2023-05-24T19:20:48.027Z,17.62
2023-05-24T19:23:17.011Z,17.59
2023-05-24T19:25:49.403Z,17.56
2023-05-24T19:28:20.560Z,17.54
2023-05-24T19:30:49.060Z,17.51
2023-05-24T19:33:17.704Z,17.48
2023-05-24T19:35:46.508Z,17.46
2023-05-24T19:38:17.208Z,17.43
2023-05-24T19:40:46.508Z,17.42
2023-05-24T19:43:14.893Z,17.39
2023-05-24T19:45:43.589Z,17.37
2023-05-24T19:48:12.361Z,17.31
2023-05-24T19:50:40.778Z,17.27
2023-05-24T19:53:09.318Z,17.20
2023-05-24T19:55:37.790Z,17.13
2023-05-24T19:58:06.462Z,17.07
2023-05-24T20:00:35.071Z,17.02
2023-05-24T20:03:03.760Z,17.01
2023-05-24T20:05:32.439Z,17.00
2023-05-24T20:08:01.002Z,16.95
2023-05-24T20:10:31.263Z,16.89
2023-05-24T20:12:59.728Z,16.83
2023-05-24T20:15:28.230Z,16.84
2023-05-24T20:17:56.644Z,16.83
2023-05-24T20:20:25.622Z,16.78
2023-05-24T20:22:54.173Z,16.73
2023-05-24T20:25:22.569Z,16.67
2023-05-24T20:27:51.186Z,16.63
2023-05-24T20:30:19.757Z,16.61
2023-05-24T20:32:48.824Z,16.59
2023-05-24T20:35:17.462Z,16.56
2023-05-24T20:37:45.882Z,16.51
2023-05-24T20:40:15.394Z,16.47
2023-05-24T20:42:43.818Z,16.44
2023-05-24T20:45:12.906Z,16.40
2023-05-24T20:47:41.430Z,16.34
2023-05-24T20:50:10.393Z,16.31
2023-05-24T20:52:38.838Z,16.29
2023-05-24T20:55:08.508Z,16.26
2023-05-24T20:57:36.897Z,16.23
2023-05-24T21:00:08.325Z,16.21
2023-05-24T21:02:36.929Z,16.18
2023-05-24T21:05:06.540Z,16.15
2023-05-24T21:07:37.931Z,16.13
2023-05-24T21:10:08.777Z,16.12
2023-05-24T21:12:37.242Z,16.09
2023-05-24T21:15:07.452Z,16.07
2023-05-24T21:17:36.002Z,16.06
2023-05-24T21:20:05.480Z,16.07
2023-05-24T21:22:33.918Z,16.05
2023-05-24T21:25:02.378Z,15.98
2023-05-24T21:27:30.812Z,15.90
2023-05-24T21:29:59.282Z,15.86
2023-05-24T21:32:27.782Z,15.85
2023-05-24T21:34:56.200Z,15.84
2023-05-24T21:37:24.773Z,15.85
2023-05-24T21:39:53.573Z,15.85
2023-05-24T21:42:22.033Z,15.88
2023-05-24T21:44:50.444Z,15.88
2023-05-24T21:47:18.766Z,15.90
2023-05-24T21:49:47.144Z,15.87
2023-05-24T21:52:15.528Z,15.83
2023-05-24T21:54:43.997Z,15.82
2023-05-24T21:57:12.283Z,15.82
2023-05-24T21:59:40.776Z,15.84
2023-05-24T22:02:09.396Z,15.86
2023-05-24T22:04:37.948Z,15.86
2023-05-24T22:07:06.351Z,15.85
2023-05-24T22:09:34.765Z,15.81
2023-05-24T22:12:03.425Z,15.77
2023-05-24T22:14:31.805Z,15.73
2023-05-24T22:17:00.386Z,15.71
2023-05-24T22:19:39.501Z,15.68
2023-05-24T22:22:09.722Z,15.65
2023-05-24T22:24:38.112Z,15.62
2023-05-24T22:27:09.002Z,15.61
2023-05-24T22:29:37.299Z,15.60
2023-05-24T22:32:06.250Z,15.55
2023-05-24T22:34:34.678Z,15.53
2023-05-24T22:37:03.118Z,15.51
2023-05-24T22:39:31.536Z,15.48
2023-05-24T22:42:00.922Z,15.44
2023-05-24T22:44:29.314Z,15.43
2023-05-24T22:46:57.655Z,15.42
2023-05-24T22:49:28.841Z,15.41
2023-05-24T22:51:57.265Z,15.39
2023-05-24T22:54:25.853Z,15.37
2023-05-24T22:56:54.250Z,15.33
2023-05-24T22:59:22.793Z,15.29
2023-05-24T23:01:51.820Z,15.27
2023-05-24T23:04:21.850Z,15.21
2023-05-24T23:06:51.701Z,15.24
2023-05-24T23:09:33.201Z,15.23
2023-05-24T23:12:06.547Z,15.21
2023-05-24T23:14:37.747Z,15.20
2023-05-24T23:17:06.500Z,15.15
2023-05-24T23:19:41.518Z,15.08
2023-05-24T23:22:11.240Z,15.05
2023-05-24T23:24:41.338Z,15.02
2023-05-24T23:27:09.869Z,15.01
2023-05-24T23:29:38.575Z,15.00
2023-05-24T23:32:08.546Z,15.00
2023-05-24T23:34:36.937Z,14.99
2023-05-24T23:37:05.808Z,14.99
2023-05-24T23:39:34.351Z,14.96
2023-05-24T23:42:03.077Z,14.91
2023-05-24T23:44:31.634Z,14.89
2023-05-24T23:47:01.325Z,14.87
2023-05-24T23:49:30.044Z,14.87
2023-05-24T23:51:58.445Z,14.86
2023-05-24T23:54:26.821Z,14.83
2023-05-24T23:56:55.237Z,14.80
2023-05-24T23:59:23.591Z,14.72
